Time;durP1;ratioP1;P1;durP2;ratioP2;P2;SDS_P1;SDS_P2;PMS_P1;PMS_P2;Temp;Humidity;BMP_temperature;BMP_pressure;BME280_temperature;BME280_humidity;BME280_pressure;Samples;Min_cycle;Max_cycle;Signal;HPM_P1;HPM_P2
2022/07/07 00:01:35;;;;;;;17.55;11.52;;;15.90;99.90;;;;;;6246043;23;20022;-85
2022/07/07 00:04:02;;;;;;;20.15;11.75;;;15.90;99.90;;;;;;6218877;23;20023;-85
2022/07/07 00:06:28;;;;;;;23.05;11.68;;;15.90;99.90;;;;;;6218162;23;20336;-85
2022/07/07 00:08:54;;;;;;;19.35;11.60;;;15.90;99.90;;;;;;6245815;23;20027;-85
2022/07/07 00:11:24;;;;;;;18.02;11.57;;;15.90;99.90;;;;;;6192688;23;20020;-85
2022/07/07 00:13:51;;;;;;;19.30;11.20;;;15.90;99.90;;;;;;6192379;23;20020;-88
2022/07/07 00:16:17;;;;;;;26.02;14.23;;;15.90;99.90;;;;;;6218042;23;20020;-86
2022/07/07 00:18:43;;;;;;;29.25;16.33;;;15.80;99.90;;;;;;6192899;23;20016;-86
2022/07/07 00:21:09;;;;;;;31.27;16.95;;;15.80;99.90;;;;;;6218046;23;20020;-87
2022/07/07 00:23:35;;;;;;;40.05;18.70;;;15.80;99.90;;;;;;6217723;23;20340;-86
2022/07/07 00:26:01;;;;;;;40.55;19.65;;;15.80;99.90;;;;;;6218109;23;20019;-85
2022/07/07 00:28:26;;;;;;;31.77;17.92;;;15.90;99.90;;;;;;6217774;23;20019;-88
2022/07/07 00:30:52;;;;;;;45.25;20.70;;;15.90;99.90;;;;;;6217196;23;20081;-86
2022/07/07 00:33:18;;;;;;;43.00;19.90;;;15.90;99.90;;;;;;6217632;23;20070;-86
2022/07/07 00:35:43;;;;;;;45.55;20.35;;;15.90;99.90;;;;;;6217252;23;20026;-87
2022/07/07 00:38:09;;;;;;;37.28;18.02;;;15.90;99.90;;;;;;6217086;23;20383;-86
2022/07/07 00:40:35;;;;;;;27.65;15.07;;;15.80;99.90;;;;;;6217730;23;20021;-86
2022/07/07 00:43:01;;;;;;;30.30;16.30;;;15.90;99.90;;;;;;6244249;23;20019;-87
2022/07/07 00:45:27;;;;;;;27.75;15.30;;;15.90;99.90;;;;;;6244554;23;20020;-86
2022/07/07 00:47:52;;;;;;;34.60;16.55;;;15.80;99.90;;;;;;6244175;23;20020;-86
2022/07/07 00:50:19;;;;;;;14.70;11.73;;;15.90;99.90;;;;;;6244369;23;20012;-85
2022/07/07 00:52:46;;;;;;;23.40;13.80;;;15.90;99.90;;;;;;6217035;23;20321;-86
2022/07/07 00:55:12;;;;;;;30.98;14.90;;;15.80;99.90;;;;;;6217500;23;20027;-87
2022/07/07 00:57:38;;;;;;;26.58;12.88;;;15.90;99.90;;;;;;6217407;23;20020;-86
2022/07/07 01:00:10;;;;;;;23.33;13.15;;;15.90;99.90;;;;;;6244441;23;20024;-86
2022/07/07 01:02:36;;;;;;;35.83;16.27;;;15.90;99.90;;;;;;6217126;23;20044;-87
2022/07/07 01:05:05;;;;;;;34.55;17.10;;;15.90;99.90;;;;;;6217195;23;20016;-87
2022/07/07 01:07:31;;;;;;;34.45;16.60;;;15.90;99.90;;;;;;6217283;23;20016;-88
2022/07/07 01:09:58;;;;;;;27.95;16.95;;;15.90;99.90;;;;;;6217589;23;20070;-87
2022/07/07 01:12:24;;;;;;;30.63;16.00;;;15.90;99.90;;;;;;6147381;23;1072718;-87
2022/07/07 01:14:50;;;;;;;33.95;17.58;;;15.90;99.90;;;;;;6245584;23;20070;-87
2022/07/07 01:17:16;;;;;;;34.25;18.08;;;15.90;99.90;;;;;;6218622;23;20050;-87
2022/07/07 01:19:41;;;;;;;48.08;20.80;;;15.90;99.90;;;;;;6218849;23;20077;-87
2022/07/07 01:22:10;;;;;;;39.83;19.40;;;15.90;99.90;;;;;;6218551;23;20020;-88
2022/07/07 01:24:36;;;;;;;39.70;19.65;;;15.90;99.90;;;;;;6218405;23;20059;-86
2022/07/07 01:27:17;;;;;;;36.97;17.73;;;15.90;99.90;;;;;;6245526;23;20066;-87
2022/07/07 01:29:45;;;;;;;47.60;20.30;;;15.90;99.90;;;;;;6193480;23;20028;-87
2022/07/07 01:32:12;;;;;;;29.85;15.85;;;15.90;99.90;;;;;;6218532;23;20012;-88
2022/07/07 01:34:44;;;;;;;36.67;18.58;;;15.90;99.90;;;;;;6218851;23;20012;-86
2022/07/07 01:37:10;;;;;;;36.05;18.60;;;16.00;99.90;;;;;;6218590;23;20020;-87
2022/07/07 01:39:38;;;;;;;35.42;18.00;;;16.00;99.90;;;;;;6218654;23;20024;-86
2022/07/07 01:42:04;;;;;;;24.02;12.88;;;16.00;99.90;;;;;;6218325;23;20031;-87
2022/07/07 01:44:31;;;;;;;13.65;7.32;;;15.90;99.90;;;;;;6218134;23;20062;-84
2022/07/07 01:46:56;;;;;;;9.20;5.72;;;15.90;99.90;;;;;;6193620;23;20020;-86
2022/07/07 01:49:22;;;;;;;13.98;6.25;;;15.80;99.90;;;;;;6220019;23;20020;-87
2022/07/07 01:51:48;;;;;;;11.32;5.10;;;15.80;99.90;;;;;;6220276;23;20012;-84
2022/07/07 01:54:14;;;;;;;11.10;5.07;;;15.60;99.90;;;;;;6219293;23;20016;-85
2022/07/07 01:56:39;;;;;;;10.82;5.70;;;15.60;99.90;;;;;;6220114;23;20030;-85
2022/07/07 01:59:05;;;;;;;12.48;5.22;;;15.60;99.90;;;;;;6195218;23;20024;-86
2022/07/07 02:01:30;;;;;;;13.80;6.32;;;15.50;99.90;;;;;;6220344;23;20017;-85
2022/07/07 02:03:56;;;;;;;12.95;5.78;;;15.50;99.90;;;;;;6220149;23;20328;-86
2022/07/07 02:06:22;;;;;;;10.52;5.78;;;15.50;99.90;;;;;;6220102;23;20017;-87
2022/07/07 02:08:47;;;;;;;14.15;5.85;;;15.50;99.90;;;;;;6220173;23;20022;-84
2022/07/07 02:11:13;;;;;;;12.90;5.90;;;15.50;99.90;;;;;;6214640;23;20048;-87
2022/07/07 02:13:47;;;;;;;14.77;6.05;;;15.50;99.90;;;;;;6214947;23;20063;-85
2022/07/07 02:16:14;;;;;;;12.85;6.10;;;15.50;99.90;;;;;;6216614;23;20025;-85
2022/07/07 02:18:41;;;;;;;11.68;5.40;;;15.60;99.90;;;;;;6214721;23;20341;-84
2022/07/07 02:21:08;;;;;;;12.05;5.20;;;15.50;99.90;;;;;;6214897;23;20436;-82
2022/07/07 02:23:35;;;;;;;8.75;4.68;;;15.50;99.90;;;;;;6189781;23;20028;-85
2022/07/07 02:26:01;;;;;;;9.52;5.95;;;15.40;99.90;;;;;;6215903;23;20306;-85
2022/07/07 02:28:27;;;;;;;15.48;7.05;;;15.50;99.90;;;;;;6214820;23;20009;-84
2022/07/07 02:30:54;;;;;;;11.98;6.32;;;15.50;99.90;;;;;;6214917;23;20082;-85
2022/07/07 02:33:20;;;;;;;7.63;4.32;;;15.50;99.90;;;;;;6214663;23;20016;-85
2022/07/07 02:35:47;;;;;;;10.38;5.20;;;15.40;99.90;;;;;;6214639;23;20016;-89
2022/07/07 02:38:13;;;;;;;8.38;4.97;;;15.50;99.90;;;;;;6216257;23;20028;-82
2022/07/07 02:40:38;;;;;;;7.88;5.20;;;15.50;99.90;;;;;;6216258;23;20021;-85
2022/07/07 02:43:04;;;;;;;10.30;4.85;;;15.50;99.90;;;;;;6214731;23;20347;-87
2022/07/07 02:45:29;;;;;;;9.80;5.53;;;15.50;99.90;;;;;;6214684;23;20017;-85
2022/07/07 02:47:55;;;;;;;14.52;6.38;;;15.50;99.90;;;;;;6214630;23;20096;-85
2022/07/07 02:50:21;;;;;;;11.73;6.30;;;15.50;99.90;;;;;;6214412;23;20017;-85
2022/07/07 02:52:47;;;;;;;13.80;7.00;;;15.50;99.90;;;;;;6214595;23;20024;-87
2022/07/07 02:55:12;;;;;;;10.10;5.88;;;15.50;99.90;;;;;;6189642;23;20384;-84
2022/07/07 02:57:38;;;;;;;10.50;5.43;;;15.50;99.90;;;;;;6215895;23;20059;-85
2022/07/07 03:00:05;;;;;;;10.32;5.28;;;15.50;99.90;;;;;;6189011;23;20091;-85
2022/07/07 03:02:37;;;;;;;9.93;4.88;;;15.50;99.90;;;;;;6216077;23;20051;-86
2022/07/07 03:05:03;;;;;;;16.00;6.13;;;15.50;99.90;;;;;;6189208;23;20024;-85
2022/07/07 03:07:29;;;;;;;15.73;7.07;;;15.50;99.90;;;;;;6214432;23;20012;-84
2022/07/07 03:09:54;;;;;;;11.23;5.65;;;15.50;99.90;;;;;;6213895;23;20092;-84
2022/07/07 03:12:20;;;;;;;10.60;5.25;;;15.60;99.90;;;;;;6213904;23;20056;-85
2022/07/07 03:14:45;;;;;;;14.95;5.00;;;15.50;99.90;;;;;;6215829;23;20391;-83
2022/07/07 03:17:11;;;;;;;8.23;3.97;;;15.50;99.90;;;;;;6215728;23;20017;-82
2022/07/07 03:19:39;;;;;;;6.90;3.42;;;15.50;99.90;;;;;;6213747;23;20444;-82
2022/07/07 03:22:04;;;;;;;7.18;3.35;;;15.40;99.90;;;;;;6215260;23;20452;-83
2022/07/07 03:24:31;;;;;;;12.52;4.07;;;15.40;99.90;;;;;;6215345;23;20016;-84
2022/07/07 03:26:58;;;;;;;16.27;5.28;;;15.40;99.90;;;;;;6213663;23;20020;-84
2022/07/07 03:29:25;;;;;;;10.65;3.20;;;15.40;99.90;;;;;;6213978;23;20125;-85
2022/07/07 03:31:50;;;;;;;7.90;3.35;;;15.40;99.90;;;;;;6215150;23;20016;-87
2022/07/07 03:34:16;;;;;;;14.38;3.38;;;15.40;99.90;;;;;;6214839;23;20051;-84
2022/07/07 03:36:41;;;;;;;10.07;3.75;;;15.50;99.90;;;;;;6213573;23;20341;-83
2022/07/07 03:39:07;;;;;;;13.65;3.40;;;15.40;99.90;;;;;;6213155;23;20019;-83
2022/07/07 03:41:48;;;;;;;10.60;3.50;;;15.40;99.90;;;;;;6214487;23;20024;-86
2022/07/07 03:44:14;;;;;;;;;;;15.30;99.90;;;;;;6213506;23;20087;-83
2022/07/07 03:46:40;;;;;;;12.90;2.50;;;15.30;99.90;;;;;;6213314;23;19955;-85
2022/07/07 03:49:05;;;;;;;8.65;2.97;;;15.30;99.90;;;;;;6215193;23;20020;-84
2022/07/07 03:51:31;;;;;;;15.38;2.88;;;15.30;99.90;;;;;;6188804;23;20029;-83
2022/07/07 03:53:57;;;;;;;12.60;3.60;;;15.30;99.90;;;;;;6213937;23;20024;-84
2022/07/07 03:56:23;;;;;;;12.95;3.17;;;15.30;99.90;;;;;;6188878;23;20020;-84
2022/07/07 03:58:48;;;;;;;11.57;3.00;;;15.30;99.90;;;;;;6213361;23;20023;-84
2022/07/07 04:01:14;;;;;;;11.57;2.65;;;15.30;99.90;;;;;;6215446;23;20051;-86
2022/07/07 04:03:40;;;;;;;9.73;2.60;;;15.30;99.90;;;;;;6215593;23;20448;-83
2022/07/07 04:06:06;;;;;;;11.30;2.08;;;15.30;99.90;;;;;;6213843;23;20017;-84
2022/07/07 04:08:31;;;;;;;8.45;2.53;;;15.30;99.90;;;;;;6213713;23;20016;-86
2022/07/07 04:10:57;;;;;;;11.07;2.50;;;15.20;99.90;;;;;;6213294;23;20025;-86
2022/07/07 04:13:23;;;;;;;11.32;2.63;;;15.30;99.90;;;;;;6213325;23;20032;-84
2022/07/07 04:15:48;;;;;;;10.45;2.40;;;15.20;99.90;;;;;;6215279;23;20009;-85
2022/07/07 04:18:14;;;;;;;9.73;2.63;;;15.20;99.90;;;;;;6213027;23;20023;-83
2022/07/07 04:20:40;;;;;;;9.82;2.25;;;15.20;99.90;;;;;;6215210;23;20392;-82
2022/07/07 04:23:05;;;;;;;12.15;2.08;;;15.20;99.90;;;;;;6215395;23;20020;-83
2022/07/07 04:25:32;;;;;;;5.85;1.45;;;15.20;99.90;;;;;;6215054;23;20019;-83
2022/07/07 04:27:57;;;;;;;15.55;2.00;;;15.10;99.90;;;;;;6213151;23;20099;-83
2022/07/07 04:30:23;;;;;;;11.00;1.52;;;15.10;99.90;;;;;;6215145;23;20491;-82
2022/07/07 04:32:48;;;;;;;5.68;1.80;;;15.10;99.90;;;;;;6215213;23;20502;-84
2022/07/07 04:35:14;;;;;;;13.38;1.90;;;15.10;99.90;;;;;;6215151;23;20091;-84
2022/07/07 04:37:40;;;;;;;12.30;2.15;;;15.00;99.90;;;;;;6213967;23;20020;-83
2022/07/07 04:40:06;;;;;;;8.23;1.65;;;15.00;99.90;;;;;;6215019;23;20012;-83
2022/07/07 04:42:32;;;;;;;14.63;1.83;;;15.00;99.90;;;;;;6215078;23;20118;-83
2022/07/07 04:44:58;;;;;;;6.90;1.50;;;15.00;99.90;;;;;;6215443;23;20421;-82
2022/07/07 04:47:23;;;;;;;10.50;1.83;;;15.00;99.90;;;;;;6215190;23;20095;-83
2022/07/07 04:49:52;;;;;;;9.93;1.70;;;14.90;99.90;;;;;;6215152;23;20463;-82
2022/07/07 04:52:18;;;;;;;9.25;1.50;;;14.90;99.90;;;;;;6215327;23;20052;-82
2022/07/07 04:54:43;;;;;;;8.02;1.33;;;14.80;99.90;;;;;;6215169;23;20459;-84
2022/07/07 04:57:09;;;;;;;8.95;1.50;;;14.80;99.90;;;;;;6215545;23;20087;-84
2022/07/07 04:59:35;;;;;;;9.30;1.50;;;14.80;99.90;;;;;;6213577;23;20017;-84
2022/07/07 05:02:00;;;;;;;8.65;1.75;;;14.80;99.90;;;;;;6215114;23;20091;-83
2022/07/07 05:04:26;;;;;;;10.80;1.30;;;14.80;99.90;;;;;;6215107;23;20099;-84
2022/07/07 05:06:52;;;;;;;12.85;2.03;;;14.80;99.90;;;;;;6213579;23;20020;-85
2022/07/07 05:09:18;;;;;;;9.55;1.45;;;14.80;99.90;;;;;;6213607;23;20017;-84
2022/07/07 05:11:44;;;;;;;11.25;1.92;;;14.70;99.90;;;;;;6213266;23;20017;-83
2022/07/07 05:14:09;;;;;;;10.10;1.40;;;14.80;99.90;;;;;;6214876;23;20020;-88
2022/07/07 05:16:35;;;;;;;6.65;1.35;;;14.80;99.90;;;;;;6213830;23;20048;-84
2022/07/07 05:19:01;;;;;;;5.88;1.20;;;14.90;99.90;;;;;;6214680;23;20091;-83
2022/07/07 05:21:26;;;;;;;7.45;1.13;;;14.90;99.90;;;;;;6213891;23;20020;-83
2022/07/07 05:23:52;;;;;;;5.30;1.00;;;14.90;99.90;;;;;;6216633;23;20431;-83
2022/07/07 05:26:36;;;;;;;6.00;0.80;;;14.80;99.90;;;;;;6215093;23;20068;-85
2022/07/07 05:29:02;;;;;;;6.47;1.15;;;14.80;99.90;;;;;;6215140;23;20092;-83
2022/07/07 05:31:28;;;;;;;5.28;1.02;;;14.90;99.90;;;;;;6216527;23;20052;-83
2022/07/07 05:33:54;;;;;;;14.23;1.88;;;14.80;99.90;;;;;;6216862;23;20021;-83
2022/07/07 05:36:19;;;;;;;3.35;1.00;;;14.80;99.90;;;;;;6216735;23;20048;-85
2022/07/07 05:38:45;;;;;;;4.38;0.98;;;14.70;99.90;;;;;;6216919;23;20098;-85
2022/07/07 05:41:11;;;;;;;6.38;1.15;;;14.70;99.90;;;;;;6215446;23;20021;-84
2022/07/07 05:43:37;;;;;;;6.68;1.17;;;14.80;99.90;;;;;;6216829;23;20095;-84
2022/07/07 05:46:02;;;;;;;8.02;1.13;;;14.80;99.90;;;;;;6216793;23;20059;-86
2022/07/07 05:48:28;;;;;;;9.65;1.30;;;14.80;99.90;;;;;;6216314;23;20017;-83
2022/07/07 05:50:54;;;;;;;8.20;1.20;;;14.90;99.90;;;;;;6215368;23;20096;-83
2022/07/07 05:53:20;;;;;;;10.70;1.35;;;15.00;99.90;;;;;;6215298;23;20016;-85
2022/07/07 05:55:45;;;;;;;8.07;1.30;;;14.90;99.90;;;;;;6216887;23;20016;-85
2022/07/07 05:58:12;;;;;;;9.20;1.23;;;15.10;99.90;;;;;;6216871;23;20016;-84
2022/07/07 06:00:38;;;;;;;6.97;1.30;;;15.20;99.90;;;;;;6216888;23;20463;-85
2022/07/07 06:03:04;;;;;;;9.88;1.77;;;15.20;99.90;;;;;;6215253;23;20024;-83
2022/07/07 06:05:29;;;;;;;7.40;1.17;;;15.40;99.90;;;;;;6215057;23;20063;-83
2022/07/07 06:07:55;;;;;;;9.90;1.33;;;15.30;99.90;;;;;;6215212;23;20016;-86
2022/07/07 06:10:21;;;;;;;16.48;1.90;;;15.30;99.90;;;;;;6218323;23;20024;-85
2022/07/07 06:13:19;;;;;;;8.30;1.52;;;15.30;99.90;;;;;;6218641;23;20024;-84
2022/07/07 06:15:44;;;;;;;15.95;1.85;;;15.30;99.90;;;;;;6246837;23;20012;-84
2022/07/07 06:18:10;;;;;;;8.02;2.13;;;15.20;99.90;;;;;;6246686;23;20386;-84
2022/07/07 06:20:36;;;;;;;11.70;1.63;;;15.20;99.90;;;;;;6220176;23;20095;-86
2022/07/07 06:23:02;;;;;;;10.40;1.48;;;15.20;99.90;;;;;;6219871;23;20024;-87
2022/07/07 06:25:28;;;;;;;8.88;1.38;;;15.40;99.90;;;;;;6219922;23;20016;-85
2022/07/07 06:27:54;;;;;;;12.27;1.77;;;15.30;99.90;;;;;;6219955;23;20340;-84
2022/07/07 06:30:20;;;;;;;8.10;1.48;;;15.40;99.90;;;;;;6219823;23;20030;-84
2022/07/07 06:32:46;;;;;;;12.52;1.60;;;15.60;99.90;;;;;;6220075;23;20467;-85
2022/07/07 06:35:12;;;;;;;8.30;1.55;;;15.80;99.90;;;;;;6220178;23;20329;-84
2022/07/07 06:37:38;;;;;;;7.32;1.55;;;16.20;99.90;;;;;;6195077;23;20023;-85
2022/07/07 06:40:04;;;;;;;9.10;1.63;;;16.40;99.90;;;;;;6219996;23;20023;-84
2022/07/07 06:42:30;;;;;;;9.98;1.60;;;16.40;99.90;;;;;;6246839;23;20016;-85
2022/07/07 06:44:56;;;;;;;7.30;1.45;;;16.30;99.90;;;;;;6219536;23;20012;-86
2022/07/07 06:47:21;;;;;;;7.10;1.08;;;16.30;99.90;;;;;;6194982;23;20059;-85
2022/07/07 06:49:47;;;;;;;7.22;1.45;;;16.30;99.90;;;;;;6219848;23;20016;-86
2022/07/07 06:52:13;;;;;;;7.65;1.55;;;16.10;99.90;;;;;;6246847;23;20016;-84
2022/07/07 06:54:39;;;;;;;9.60;1.80;;;16.30;99.90;;;;;;6246594;23;20083;-85
2022/07/07 06:57:06;;;;;;;8.68;1.38;;;16.50;99.90;;;;;;6219451;23;20450;-84
2022/07/07 06:59:33;;;;;;;11.65;1.45;;;16.60;99.90;;;;;;6193988;23;20020;-84
2022/07/07 07:01:58;;;;;;;8.23;1.20;;;16.80;99.90;;;;;;6219662;23;20024;-85
2022/07/07 07:04:24;;;;;;;4.80;1.08;;;16.90;99.90;;;;;;6194557;23;20105;-84
2022/07/07 07:06:50;;;;;;;6.85;1.10;;;16.90;99.90;;;;;;6219618;23;20012;-83
2022/07/07 07:09:15;;;;;;;5.45;1.00;;;16.90;99.90;;;;;;6219571;23;20073;-85
2022/07/07 07:11:41;;;;;;;7.80;1.02;;;16.80;99.90;;;;;;6245788;23;20329;-82
2022/07/07 07:14:07;;;;;;;5.07;0.70;;;16.80;99.90;;;;;;6246658;23;20034;-83
2022/07/07 07:16:32;;;;;;;3.90;0.70;;;16.70;99.90;;;;;;6219704;23;20035;-84
2022/07/07 07:18:58;;;;;;;11.70;1.15;;;16.70;99.90;;;;;;6219157;23;20100;-86
2022/07/07 07:21:24;;;;;;;5.50;1.08;;;16.90;99.90;;;;;;6246583;23;20462;-85
2022/07/07 07:23:49;;;;;;;4.22;0.93;;;17.40;99.90;;;;;;6219351;23;20340;-88
2022/07/07 07:26:15;;;;;;;5.68;1.17;;;17.80;99.90;;;;;;6246374;23;20051;-88
2022/07/07 07:28:41;;;;;;;3.47;0.77;;;18.10;99.90;;;;;;6219523;23;20012;-85
2022/07/07 07:31:07;;;;;;;3.00;0.90;;;18.40;99.90;;;;;;6194516;23;20023;-86
2022/07/07 07:33:35;;;;;;;5.55;1.02;;;18.70;99.90;;;;;;6194491;23;20020;-84
2022/07/07 07:36:01;;;;;;;4.97;0.65;;;19.00;99.90;;;;;;6219317;23;20063;-86
2022/07/07 07:38:27;;;;;;;3.60;0.80;;;19.20;99.90;;;;;;6218763;23;20017;-86
2022/07/07 07:40:53;;;;;;;4.97;0.63;;;19.10;99.90;;;;;;6245975;23;20317;-85
2022/07/07 07:43:18;;;;;;;3.67;0.70;;;18.90;99.90;;;;;;6193916;23;20051;-86
2022/07/07 07:45:45;;;;;;;2.83;0.50;;;18.70;99.90;;;;;;6219246;23;20020;-85
2022/07/07 07:48:11;;;;;;;3.25;0.70;;;18.40;99.90;;;;;;6218828;22;20012;-83
2022/07/07 07:50:36;;;;;;;3.72;0.60;;;17.90;99.90;;;;;;6219227;23;20070;-85
2022/07/07 07:53:05;;;;;;;3.78;0.70;;;17.30;99.90;;;;;;6194184;23;20405;-83
2022/07/07 07:55:31;;;;;;;5.07;1.00;;;16.90;99.90;;;;;;6218453;23;20020;-83
2022/07/07 07:57:57;;;;;;;4.68;0.85;;;16.80;99.90;;;;;;6218706;23;20020;-84
2022/07/07 08:00:24;;;;;;;3.30;0.50;;;16.70;99.90;;;;;;6245855;23;20027;-82
2022/07/07 08:02:51;;;;;;;3.00;0.57;;;16.70;99.90;;;;;;6194121;23;20161;-84
2022/07/07 08:05:18;;;;;;;3.65;0.70;;;16.60;99.90;;;;;;6245538;23;20052;-83
2022/07/07 08:07:44;;;;;;;4.97;0.80;;;16.40;99.90;;;;;;6218401;23;20343;-86
2022/07/07 08:10:14;;;;;;;2.72;0.65;;;16.30;99.90;;;;;;6218753;23;20163;-83
2022/07/07 08:12:41;;;;;;;5.15;1.02;;;16.20;99.90;;;;;;6218745;23;20062;-86
2022/07/07 08:15:08;;;;;;;3.60;0.70;;;16.20;99.90;;;;;;6218550;23;20047;-87
2022/07/07 08:17:33;;;;;;;2.85;0.85;;;16.20;99.90;;;;;;6245708;23;20062;-85
2022/07/07 08:20:00;;;;;;;6.55;1.58;;;16.50;99.90;;;;;;6219060;23;20019;-85
2022/07/07 08:22:25;;;;;;;5.05;1.30;;;17.00;99.90;;;;;;6193932;23;20020;-89
2022/07/07 08:24:52;;;;;;;6.22;0.82;;;17.60;99.90;;;;;;6218386;23;20058;-85
2022/07/07 08:27:18;;;;;;;6.22;1.00;;;17.90;99.90;;;;;;6245200;23;20471;-83
2022/07/07 08:29:44;;;;;;;4.85;0.90;;;18.50;99.90;;;;;;6245939;23;20020;-85
2022/07/07 08:32:10;;;;;;;6.25;1.00;;;19.00;99.90;;;;;;6219150;23;20023;-83
2022/07/07 08:34:37;;;;;;;3.58;0.60;;;19.80;99.90;;;;;;6217678;23;20027;-86
2022/07/07 08:37:03;;;;;;;3.10;0.68;;;20.80;99.90;;;;;;6245693;23;20023;-84
2022/07/07 08:39:29;;;;;;;3.92;0.77;;;21.10;99.90;;;;;;6245591;23;20160;-86
2022/07/07 08:41:55;;;;;;;4.10;0.90;;;21.30;99.90;;;;;;6218857;23;20016;-86
2022/07/07 08:44:21;;;;;;;5.63;1.10;;;21.70;99.90;;;;;;6217895;23;20016;-85
2022/07/07 08:46:47;;;;;;;6.18;0.80;;;21.30;99.90;;;;;;6219102;23;20044;-84
2022/07/07 08:49:13;;;;;;;2.38;0.60;;;21.00;99.90;;;;;;6217638;23;20031;-84
2022/07/07 08:51:43;;;;;;;3.15;0.80;;;20.80;99.90;;;;;;6245359;23;20027;-87
2022/07/07 08:54:14;;;;;;;7.20;1.10;;;20.50;99.90;;;;;;6245104;23;20079;-85
2022/07/07 08:56:40;;;;;;;4.10;0.80;;;20.10;99.90;;;;;;6244803;23;20087;-86
2022/07/07 08:59:08;;;;;;;4.53;0.73;;;19.70;99.90;;;;;;6246682;23;20026;-86
2022/07/07 09:01:34;;;;;;;2.05;0.65;;;19.20;99.90;;;;;;6221163;23;20024;-86
2022/07/07 09:04:01;;;;;;;4.88;0.80;;;18.90;99.90;;;;;;6220730;23;20095;-83
2022/07/07 09:06:27;;;;;;;3.78;0.82;;;18.90;99.90;;;;;;6219207;23;20119;-84
2022/07/07 09:08:55;;;;;;;3.20;0.60;;;19.30;99.90;;;;;;6247507;23;20321;-86
2022/07/07 09:11:28;;;;;;;2.47;0.70;;;20.00;99.90;;;;;;6247548;23;20016;-83
2022/07/07 09:14:09;;;;;;;2.83;0.80;;;20.80;99.90;;;;;;6220763;23;20051;-84
2022/07/07 09:16:36;;;;;;;4.80;1.08;;;21.40;99.90;;;;;;6247433;23;20095;-85
2022/07/07 09:19:05;;;;;;;3.33;0.80;;;21.50;99.90;;;;;;6220532;23;20020;-85
2022/07/07 09:21:32;;;;;;;4.97;0.90;;;21.60;99.90;;;;;;6247514;23;20023;-84
2022/07/07 09:24:06;;;;;;;4.10;1.02;;;21.30;99.90;;;;;;6220850;23;20023;-85
2022/07/07 09:26:39;;;;;;;5.60;1.13;;;20.90;99.90;;;;;;6220786;23;20012;-86
2022/07/07 09:29:06;;;;;;;6.40;1.27;;;20.40;99.90;;;;;;6247344;23;20016;-89
2022/07/07 09:31:55;;;;;;;6.57;1.10;;;19.90;99.90;;;;;;6247628;23;20016;-86
2022/07/07 09:34:24;;;;;;;7.93;1.40;;;19.40;99.90;;;;;;6076248;23;20018;-84
2022/07/07 09:39:49;;;;;;;6.28;1.25;;;18.50;99.90;;;;;;6100210;23;20476;-85
2022/07/07 09:42:30;;;;;;;4.90;1.35;;;18.20;99.90;;;;;;6100273;23;20393;-82
2022/07/07 09:45:02;;;;;;;;;;;18.10;99.90;;;;;;6100961;23;20485;-84
2022/07/07 09:47:29;;;;;;;6.38;1.30;;;18.20;99.90;;;;;;6124833;23;19995;-88
2022/07/07 09:50:03;;;;;;;5.03;1.27;;;18.30;99.90;;;;;;6100347;23;20024;-85
2022/07/07 09:52:30;;;;;;;8.20;1.35;;;18.70;99.90;;;;;;6124864;23;20022;-84
2022/07/07 09:54:58;;;;;;;5.47;1.13;;;19.70;99.90;;;;;;6124767;23;20109;-85
2022/07/07 09:57:25;;;;;;;5.28;1.17;;;20.80;99.90;;;;;;6124590;23;20018;-82
2022/07/07 09:59:52;;;;;;;8.10;1.50;;;20.90;99.90;;;;;;6100039;23;20014;-83
2022/07/07 10:02:21;;;;;;;5.32;1.25;;;20.30;99.90;;;;;;6099243;23;20028;-84
2022/07/07 10:04:49;;;;;;;8.38;1.38;;;19.70;99.90;;;;;;6124939;23;20449;-85
2022/07/07 10:07:18;;;;;;;5.38;1.13;;;19.20;99.90;;;;;;6124420;23;20028;-83
2022/07/07 10:09:44;;;;;;;6.57;1.00;;;19.10;99.90;;;;;;6124189;23;20029;-87
2022/07/07 10:12:13;;;;;;;4.40;1.10;;;19.00;99.90;;;;;;6197062;23;20017;-85
2022/07/07 10:14:43;;;;;;;4.38;1.00;;;19.10;99.90;;;;;;6216557;23;20032;-84
2022/07/07 10:17:11;;;;;;;4.30;1.00;;;19.20;99.90;;;;;;6215271;23;20017;-84
2022/07/07 10:19:37;;;;;;;4.72;1.20;;;19.60;99.90;;;;;;6214499;23;20021;-83
2022/07/07 10:22:04;;;;;;;3.20;0.75;;;20.60;99.90;;;;;;6216355;23;20438;-85
2022/07/07 10:24:32;;;;;;;4.25;1.02;;;20.80;99.90;;;;;;6214173;23;20027;-83
2022/07/07 10:27:03;;;;;;;7.50;1.38;;;20.30;99.90;;;;;;6215191;23;20519;-85
2022/07/07 10:29:48;;;;;;;;;;;19.60;99.90;;;;;;6216915;23;20023;-84
2022/07/07 10:32:38;;;;;;;7.85;1.40;;;19.00;99.90;;;;;;6214915;23;19944;-84
2022/07/07 10:35:13;;;;;;;6.30;1.10;;;18.80;99.90;;;;;;6214913;23;20017;-86
2022/07/07 10:37:46;;;;;;;3.50;1.20;;;19.00;99.90;;;;;;6214916;23;20122;-84
2022/07/07 10:40:29;;;;;;;6.35;1.02;;;19.30;99.90;;;;;;6216678;23;20020;-86
2022/07/07 10:43:17;;;;;;;4.00;1.10;;;19.60;99.90;;;;;;6214782;23;20028;-85
2022/07/07 10:45:45;;;;;;;4.20;1.08;;;20.40;99.90;;;;;;6214219;23;20452;-85
2022/07/07 10:48:47;;;;;;;4.10;0.98;;;21.10;99.90;;;;;;6216729;23;20019;-84
2022/07/07 10:51:20;;;;;;;4.55;1.20;;;20.90;99.90;;;;;;6216342;23;20046;-84
2022/07/07 10:54:03;;;;;;;2.55;0.90;;;20.00;99.90;;;;;;6189083;23;20013;-83
2022/07/07 10:56:51;;;;;;;5.18;1.25;;;19.00;99.90;;;;;;6213992;23;20078;-84
2022/07/07 10:59:20;;;;;;;6.05;1.20;;;18.10;99.90;;;;;;6214449;23;20466;-84
2022/07/07 11:02:01;;;;;;;5.65;1.20;;;17.80;99.90;;;;;;6216498;23;20023;-84
2022/07/07 11:04:46;;;;;;;8.02;1.40;;;17.80;99.90;;;;;;6214448;23;20021;-85
2022/07/07 11:07:19;;;;;;;4.30;1.52;;;18.00;99.90;;;;;;6214574;23;20023;-84
2022/07/07 11:10:12;;;;;;;2.75;0.95;;;18.30;99.90;;;;;;6214982;23;20015;-85
2022/07/07 11:12:47;;;;;;;6.07;1.20;;;19.10;99.90;;;;;;6245603;23;20103;-83
2022/07/07 11:15:18;;;;;;;6.15;1.08;;;19.70;99.90;;;;;;6246214;23;20091;-84
2022/07/07 11:17:46;;;;;;;8.40;1.13;;;20.20;99.90;;;;;;6246241;23;20016;-84
2022/07/07 11:20:19;;;;;;;7.65;1.42;;;20.00;99.90;;;;;;6246222;23;20442;-86
2022/07/07 11:23:06;;;;;;;6.40;1.30;;;19.40;99.90;;;;;;6219596;23;20110;-83
2022/07/07 11:25:32;;;;;;;11.63;1.85;;;18.70;99.90;;;;;;6219276;23;20016;-83
2022/07/07 11:27:58;;;;;;;7.53;1.38;;;18.20;99.90;;;;;;6219545;23;20043;-87
2022/07/07 11:30:25;;;;;;;8.85;1.60;;;18.20;99.90;;;;;;6193334;23;20023;-85
2022/07/07 11:32:55;;;;;;;9.32;2.00;;;18.60;99.90;;;;;;6246464;23;20016;-85
2022/07/07 11:35:21;;;;;;;9.68;2.08;;;19.00;99.90;;;;;;6219891;23;20020;-86
2022/07/07 11:37:47;;;;;;;11.32;1.70;;;19.30;99.90;;;;;;6246651;23;20016;-86
2022/07/07 11:40:13;;;;;;;11.98;2.25;;;19.30;99.90;;;;;;6246407;23;20020;-85
2022/07/07 11:43:01;;;;;;;11.77;1.98;;;18.90;99.90;;;;;;6220121;23;20012;-84
2022/07/07 11:45:28;;;;;;;12.30;1.90;;;18.60;99.90;;;;;;6246044;23;20103;-84
2022/07/07 11:48:02;;;;;;;14.55;1.60;;;18.70;99.90;;;;;;6246044;23;20016;-88
2022/07/07 11:50:32;;;;;;;14.77;2.47;;;19.20;99.90;;;;;;6245936;23;20105;-82
2022/07/07 11:53:00;;;;;;;11.70;1.75;;;19.30;99.90;;;;;;6219299;23;20138;-86
2022/07/07 11:55:26;;;;;;;13.35;2.17;;;19.20;99.90;;;;;;6219330;23;20016;-84
2022/07/07 11:57:58;;;;;;;14.32;2.38;;;18.80;99.90;;;;;;6219267;23;20016;-84
2022/07/07 12:00:24;;;;;;;11.73;2.22;;;18.40;99.90;;;;;;6218439;23;20016;-84
2022/07/07 12:02:52;;;;;;;17.70;2.55;;;18.10;99.90;;;;;;6219211;23;20070;-85
2022/07/07 12:05:25;;;;;;;16.45;2.95;;;18.10;99.90;;;;;;6218882;23;20067;-85
2022/07/07 12:07:59;;;;;;;13.82;2.22;;;18.10;99.90;;;;;;6245921;23;20443;-84
2022/07/07 12:10:30;;;;;;;20.52;3.00;;;18.40;99.90;;;;;;6245753;23;20031;-85
2022/07/07 12:13:05;;;;;;;14.30;2.42;;;18.70;99.90;;;;;;6245817;23;20024;-83
2022/07/07 12:15:38;;;;;;;17.13;2.30;;;19.20;99.90;;;;;;6245923;23;20018;-86
2022/07/07 12:18:05;;;;;;;12.23;2.08;;;19.40;99.90;;;;;;6218833;23;20099;-85
2022/07/07 12:20:32;;;;;;;11.85;2.33;;;19.50;99.90;;;;;;6245702;23;20016;-85
2022/07/07 12:22:59;;;;;;;12.90;2.17;;;19.60;99.90;;;;;;6245855;23;20099;-84
2022/07/07 12:25:30;;;;;;;15.60;2.15;;;19.60;99.90;;;;;;6245670;23;20016;-84
2022/07/07 12:27:57;;;;;;;;;;;19.70;99.90;;;;;;6246102;23;20379;-85
2022/07/07 12:30:31;;;;;;;14.90;2.13;;;19.70;99.90;;;;;;6218377;23;19919;-86
2022/07/07 12:32:57;;;;;;;13.18;2.20;;;19.80;99.90;;;;;;6245601;23;20016;-83
2022/07/07 12:35:38;;;;;;;12.60;2.03;;;19.90;99.90;;;;;;6245326;23;20483;-84
2022/07/07 12:38:07;;;;;;;12.48;2.35;;;20.00;99.90;;;;;;6245721;23;20020;-84
2022/07/07 12:40:36;;;;;;;10.65;2.42;;;20.20;99.90;;;;;;6245636;23;20020;-84
2022/07/07 12:43:10;;;;;;;10.85;1.88;;;20.30;99.90;;;;;;6218900;23;20047;-84
2022/07/07 12:45:38;;;;;;;10.45;1.70;;;20.10;99.90;;;;;;6245602;23;20070;-84
2022/07/07 12:48:14;;;;;;;10.77;1.83;;;19.80;99.90;;;;;;6193919;23;20016;-83
2022/07/07 12:50:40;;;;;;;8.82;1.77;;;19.50;99.90;;;;;;6245760;23;20375;-83